Time;durP1;ratioP1;P1;durP2;ratioP2;P2;SDS_P1;SDS_P2;PMS_P1;PMS_P2;Temp;Humidity;BMP_temperature;BMP_pressure;BME280_temperature;BME280_humidity;BME280_pressure;Samples;Min_cycle;Max_cycle;Signal;HPM_P1;HPM_P2
2024/01/15 00:03:02;;;;;;;20.43;14.23;;;1.90;40.20;;;;;;10366220;28;20313;-79
2024/01/15 00:08:06;;;;;;;19.27;14.13;;;1.90;40.20;;;;;;10357481;28;20317;-79
2024/01/15 00:13:09;;;;;;;20.67;13.97;;;1.80;40.10;;;;;;10367811;28;20732;-79
2024/01/15 00:18:13;;;;;;;21.40;14.93;;;1.80;40.10;;;;;;10365369;28;20261;-79
2024/01/15 00:23:17;;;;;;;23.73;15.43;;;1.70;40.00;;;;;;10366792;28;20227;-79
2024/01/15 00:28:20;;;;;;;19.70;14.83;;;1.60;40.00;;;;;;10362956;28;20712;-79
2024/01/15 00:33:24;;;;;;;21.80;14.33;;;1.60;40.00;;;;;;10369027;28;20340;-79
2024/01/15 00:38:28;;;;;;;21.33;14.60;;;1.60;40.00;;;;;;10365170;28;20250;-79
2024/01/15 00:43:31;;;;;;;19.50;14.13;;;1.70;40.00;;;;;;10359782;28;20246;-79
2024/01/15 00:48:35;;;;;;;22.33;15.30;;;1.50;39.90;;;;;;10364247;28;20282;-79
2024/01/15 00:53:39;;;;;;;23.27;15.90;;;1.40;39.80;;;;;;10367892;28;20235;-79
2024/01/15 00:58:43;;;;;;;22.03;14.27;;;1.30;39.70;;;;;;10368590;28;20785;-79
2024/01/15 01:03:47;;;;;;;20.93;14.27;;;1.30;39.70;;;;;;10366576;28;20794;-79
2024/01/15 01:08:50;;;;;;;19.00;12.67;;;1.30;39.70;;;;;;10367828;28;20231;-79
2024/01/15 01:13:54;;;;;;;23.97;15.13;;;1.30;39.70;;;;;;10366899;28;20258;-79
2024/01/15 01:18:58;;;;;;;22.33;15.37;;;1.20;39.60;;;;;;10359417;28;20234;-79
2024/01/15 01:24:02;;;;;;;22.80;14.77;;;1.20;39.60;;;;;;10361831;28;20689;-79
2024/01/15 01:29:05;;;;;;;20.70;13.60;;;1.20;39.70;;;;;;10362964;28;20301;-79
2024/01/15 01:34:09;;;;;;;25.53;16.37;;;1.20;39.70;;;;;;10364551;28;20265;-79
2024/01/15 01:39:13;;;;;;;22.33;14.07;;;1.20;39.80;;;;;;10368780;28;20277;-79
2024/01/15 01:44:16;;;;;;;20.97;14.33;;;1.20;39.90;;;;;;10373308;28;20234;-79
2024/01/15 01:49:20;;;;;;;21.70;14.23;;;1.20;39.90;;;;;;10368606;28;20909;-79
2024/01/15 01:54:25;;;;;;;22.73;14.03;;;1.20;39.90;;;;;;10368059;28;20238;-79
2024/01/15 01:59:31;;;;;;;19.63;12.17;;;1.20;40.00;;;;;;10370011;28;20238;-79
2024/01/15 02:04:37;;;;;;;19.67;12.90;;;1.30;40.10;;;;;;10370585;28;20808;-79
2024/01/15 02:09:43;;;;;;;19.97;12.73;;;1.40;40.10;;;;;;10368209;28;20222;-79
2024/01/15 02:14:46;;;;;;;20.13;12.60;;;1.40;40.10;;;;;;10374324;28;20238;-79
2024/01/15 02:19:51;;;;;;;15.83;11.00;;;1.40;39.80;;;;;;10369170;28;20306;-79
2024/01/15 02:24:55;;;;;;;18.23;11.60;;;1.40;39.80;;;;;;10363285;28;20236;-79
2024/01/15 02:29:59;;;;;;;18.37;12.13;;;1.60;40.00;;;;;;10364598;28;20255;-79
2024/01/15 02:35:02;;;;;;;16.47;10.97;;;1.40;39.80;;;;;;10369309;28;20288;-79
2024/01/15 02:40:08;;;;;;;19.77;12.23;;;1.40;39.80;;;;;;10370108;28;20258;-79
2024/01/15 02:45:11;;;;;;;19.20;11.90;;;1.40;39.80;;;;;;10372605;28;20226;-79
2024/01/15 02:50:15;;;;;;;18.40;12.37;;;1.40;39.80;;;;;;10364340;28;20718;-79
2024/01/15 02:55:19;;;;;;;16.47;11.10;;;1.40;39.80;;;;;;10372285;28;20261;-79
2024/01/15 03:00:27;;;;;;;18.10;11.77;;;1.40;39.80;;;;;;10369278;28;20234;-79
2024/01/15 03:05:30;;;;;;;16.97;10.97;;;1.40;39.80;;;;;;10372490;28;20233;-79
2024/01/15 03:10:35;;;;;;;19.30;12.53;;;1.40;39.80;;;;;;10366941;28;20253;-79
2024/01/15 03:15:38;;;;;;;16.80;11.47;;;1.40;39.80;;;;;;10365759;28;20241;-79
2024/01/15 03:20:41;;;;;;;16.47;10.27;;;1.40;39.80;;;;;;10369046;28;20238;-79
2024/01/15 03:25:45;;;;;;;14.80;9.93;;;1.40;39.80;;;;;;10366512;28;20250;-79
2024/01/15 03:30:49;;;;;;;17.43;10.40;;;1.40;39.80;;;;;;10365095;28;20290;-79
2024/01/15 03:35:52;;;;;;;14.27;9.93;;;1.60;40.00;;;;;;10366914;28;20276;-79
2024/01/15 03:40:57;;;;;;;15.07;10.13;;;1.50;39.90;;;;;;10363003;28;20281;-79
2024/01/15 03:46:01;;;;;;;14.33;9.97;;;1.50;39.80;;;;;;10364784;28;20281;-79
2024/01/15 03:51:05;;;;;;;15.00;10.30;;;1.50;39.90;;;;;;10367746;28;20222;-79
2024/01/15 03:56:10;;;;;;;14.87;9.57;;;1.50;39.90;;;;;;10369741;28;20227;-79
2024/01/15 04:01:13;;;;;;;14.87;9.63;;;1.50;39.90;;;;;;10366467;28;20735;-79
2024/01/15 04:06:16;;;;;;;13.23;8.83;;;1.60;40.00;;;;;;10366301;28;20269;-79
2024/01/15 04:11:22;;;;;;;11.10;8.37;;;1.60;40.00;;;;;;10376045;28;20309;-79
2024/01/15 04:16:25;;;;;;;12.63;8.97;;;1.60;40.00;;;;;;10370684;28;20729;-79
2024/01/15 04:21:28;;;;;;;11.33;7.87;;;1.70;40.20;;;;;;10368995;28;20250;-79
2024/01/15 04:26:33;;;;;;;11.83;8.37;;;1.90;40.20;;;;;;10368358;28;20222;-79
2024/01/15 04:31:36;;;;;;;10.30;7.33;;;1.80;40.10;;;;;;10369345;28;20291;-79
2024/01/15 04:36:40;;;;;;;10.10;7.43;;;1.80;40.10;;;;;;10369263;28;20233;-79
2024/01/15 04:41:45;;;;;;;9.87;6.97;;;1.90;40.20;;;;;;10371673;28;20230;-79
2024/01/15 04:46:48;;;;;;;9.23;6.50;;;2.00;40.20;;;;;;10372107;28;20256;-79
2024/01/15 04:51:51;;;;;;;8.50;5.70;;;2.00;40.20;;;;;;10368973;28;20314;-79
2024/01/15 04:56:56;;;;;;;6.73;5.27;;;2.10;40.40;;;;;;10366837;28;20273;-79
2024/01/15 05:01:59;;;;;;;7.93;5.33;;;2.10;40.40;;;;;;10357252;28;20289;-79
2024/01/15 05:07:02;;;;;;;6.50;5.20;;;2.20;40.40;;;;;;10365806;28;20978;-79
2024/01/15 05:12:08;;;;;;;5.07;4.57;;;2.30;40.50;;;;;;10366855;28;20302;-79
2024/01/15 05:17:11;;;;;;;5.90;4.70;;;2.40;40.40;;;;;;10371500;28;20284;-79
2024/01/15 05:22:14;;;;;;;5.67;4.70;;;2.50;40.20;;;;;;10353195;28;20261;-79
2024/01/15 05:27:19;;;;;;;5.60;4.73;;;2.60;40.20;;;;;;10370963;28;20309;-79
2024/01/15 05:32:22;;;;;;;4.50;4.10;;;2.70;40.10;;;;;;10372137;28;20238;-79
2024/01/15 05:37:25;;;;;;;5.77;4.43;;;2.70;40.20;;;;;;10375152;28;21034;-79
2024/01/15 05:42:31;;;;;;;6.13;4.27;;;2.80;40.00;;;;;;10373844;28;20318;-79
2024/01/15 05:47:35;;;;;;;5.40;4.80;;;3.00;40.00;;;;;;10369201;28;20310;-78
2024/01/15 05:52:39;;;;;;;7.33;5.00;;;2.90;39.90;;;;;;10370362;28;20242;-78
2024/01/15 05:57:43;;;;;;;5.20;4.40;;;3.00;39.70;;;;;;10369232;28;20301;-78
2024/01/15 06:02:46;;;;;;;5.13;4.63;;;3.00;39.70;;;;;;10368807;28;20239;-78
2024/01/15 06:07:49;;;;;;;6.53;4.70;;;3.10;39.70;;;;;;10367130;28;20652;-79
2024/01/15 06:12:54;;;;;;;5.67;4.50;;;3.10;39.60;;;;;;10368727;28;20239;-80
2024/01/15 06:17:57;;;;;;;5.83;4.10;;;3.10;39.60;;;;;;10367035;28;20312;-78
2024/01/15 06:23:01;;;;;;;5.10;4.00;;;3.10;39.60;;;;;;10369293;28;20233;-79
2024/01/15 06:28:05;;;;;;;4.90;4.40;;;3.10;39.40;;;;;;10356904;28;20318;-78
2024/01/15 06:33:08;;;;;;;4.80;4.10;;;3.20;39.20;;;;;;10366097;28;21464;-79
2024/01/15 06:38:12;;;;;;;4.90;4.20;;;3.30;39.10;;;;;;10369184;28;20234;-79
2024/01/15 06:43:17;;;;;;;4.57;3.83;;;3.30;39.70;;;;;;10372407;28;20261;-78
2024/01/15 06:48:21;;;;;;;4.53;3.90;;;3.30;38.60;;;;;;10362193;28;20303;-79
2024/01/15 06:53:24;;;;;;;6.70;4.67;;;3.40;38.90;;;;;;10358082;28;20238;-78
2024/01/15 06:58:31;;;;;;;5.70;4.90;;;3.50;38.70;;;;;;10366049;28;20257;-78
2024/01/15 07:03:34;;;;;;;6.07;3.97;;;3.60;38.50;;;;;;10362197;28;20269;-79
2024/01/15 07:08:38;;;;;;;5.13;4.07;;;3.40;38.80;;;;;;10363920;28;20230;-80
2024/01/15 07:13:42;;;;;;;4.73;3.53;;;3.50;38.70;;;;;;10370950;28;20234;-80
2024/01/15 07:18:46;;;;;;;5.83;4.30;;;3.50;38.60;;;;;;10365776;28;20948;-79
2024/01/15 07:23:49;;;;;;;5.47;3.70;;;3.50;38.70;;;;;;10369338;28;20239;-79
2024/01/15 07:28:53;;;;;;;3.87;3.43;;;3.50;38.40;;;;;;10366852;28;20297;-79
2024/01/15 07:33:57;;;;;;;6.77;4.20;;;3.50;38.60;;;;;;10366805;28;20288;-80
2024/01/15 07:39:00;;;;;;;4.33;3.80;;;3.50;38.70;;;;;;10374109;28;20321;-79
2024/01/15 07:44:06;;;;;;;5.67;3.80;;;3.50;38.70;;;;;;10369312;28;20257;-79
2024/01/15 07:49:09;;;;;;;3.83;3.37;;;3.50;38.50;;;;;;10376920;28;20230;-79
2024/01/15 07:54:12;;;;;;;5.77;4.40;;;3.50;38.60;;;;;;10367018;28;20230;-79
2024/01/15 07:59:18;;;;;;;4.63;3.97;;;3.50;38.40;;;;;;10372792;28;20290;-79
2024/01/15 08:04:21;;;;;;;5.17;4.13;;;3.50;38.50;;;;;;10369222;28;20614;-79
2024/01/15 08:09:25;;;;;;;6.00;4.43;;;3.50;38.60;;;;;;10379279;28;20226;-80
2024/01/15 08:14:30;;;;;;;15.07;10.67;;;3.60;38.80;;;;;;10362341;28;20289;-79
2024/01/15 08:19:34;;;;;;;6.47;5.27;;;3.60;38.60;;;;;;10355049;28;20280;-80
2024/01/15 08:24:37;;;;;;;9.20;7.30;;;3.70;38.70;;;;;;10353096;28;20230;-79
2024/01/15 08:29:42;;;;;;;6.03;5.20;;;3.70;38.70;;;;;;10359486;28;20277;-80
2024/01/15 08:34:47;;;;;;;5.60;4.60;;;3.70;38.60;;;;;;10332539;28;20819;-79
2024/01/15 08:39:50;;;;;;;5.20;4.47;;;3.80;38.80;;;;;;10360368;28;20234;-80
2024/01/15 08:44:55;;;;;;;5.93;4.43;;;3.80;38.70;;;;;;10357794;28;20241;-79
2024/01/15 08:49:59;;;;;;;5.40;4.20;;;3.90;38.60;;;;;;10362579;28;20230;-80
2024/01/15 08:55:04;;;;;;;4.40;4.00;;;4.00;38.70;;;;;;10376033;28;20698;-79
2024/01/15 09:00:10;;;;;;;5.17;4.40;;;4.00;38.70;;;;;;10371564;28;20269;-81
2024/01/15 09:05:13;;;;;;;4.30;3.63;;;4.00;38.50;;;;;;10363057;28;20280;-81
2024/01/15 09:10:17;;;;;;;5.37;4.80;;;4.10;38.40;;;;;;10364020;28;20321;-80
2024/01/15 09:15:21;;;;;;;5.13;4.30;;;4.10;38.50;;;;;;10379134;28;20301;-80
2024/01/15 09:20:25;;;;;;;5.00;4.23;;;4.20;38.30;;;;;;10370282;28;20230;-80
2024/01/15 09:25:29;;;;;;;4.13;3.70;;;4.20;38.20;;;;;;10375045;28;20762;-81
2024/01/15 09:30:33;;;;;;;4.37;3.50;;;4.30;38.20;;;;;;10376976;28;20343;-80
2024/01/15 09:35:37;;;;;;;4.27;3.50;;;4.30;38.00;;;;;;10375388;28;20593;-80
2024/01/15 09:40:43;;;;;;;4.43;3.70;;;4.40;38.00;;;;;;10372461;28;20321;-80
2024/01/15 09:45:49;;;;;;;3.83;3.40;;;4.40;38.00;;;;;;10372430;28;20313;-80
2024/01/15 09:50:53;;;;;;;4.37;3.83;;;4.50;37.90;;;;;;10375974;28;20940;-80
2024/01/15 09:55:59;;;;;;;4.83;3.97;;;4.50;37.80;;;;;;10374979;28;20321;-79
2024/01/15 10:01:04;;;;;;;4.40;3.77;;;4.50;37.80;;;;;;10365673;28;20229;-79
2024/01/15 10:06:17;;;;;;;4.70;4.00;;;4.60;37.60;;;;;;10367701;28;20313;-81
2024/01/15 10:11:24;;;;;;;4.47;3.47;;;4.60;37.50;;;;;;10362089;28;20230;-81
2024/01/15 10:16:29;;;;;;;3.93;3.40;;;4.60;37.70;;;;;;10370611;28;20218;-78
2024/01/15 10:21:34;;;;;;;5.27;3.73;;;4.70;37.30;;;;;;10368072;28;20281;-79
2024/01/15 10:26:37;;;;;;;6.37;4.57;;;4.60;37.60;;;;;;10365545;28;20649;-78
2024/01/15 10:31:42;;;;;;;3.80;3.37;;;4.70;37.30;;;;;;10367258;28;20943;-78
2024/01/15 10:36:52;;;;;;;4.40;3.90;;;4.70;37.50;;;;;;10361587;28;20257;-79
2024/01/15 10:41:55;;;;;;;4.10;3.47;;;4.70;37.30;;;;;;10366835;28;20234;-79
2024/01/15 10:47:00;;;;;;;4.17;3.60;;;4.80;37.50;;;;;;10367146;28;20222;-78
2024/01/15 10:52:04;;;;;;;4.00;3.60;;;4.80;37.00;;;;;;10369416;28;20234;-78
2024/01/15 10:57:07;;;;;;;3.33;3.03;;;4.80;36.60;;;;;;10361763;28;20226;-77
2024/01/15 11:02:14;;;;;;;4.30;3.43;;;4.80;36.60;;;;;;10357293;28;20230;-76
2024/01/15 11:07:18;;;;;;;4.20;3.23;;;4.90;36.70;;;;;;10361906;28;20354;-75
2024/01/15 11:12:21;;;;;;;4.47;3.17;;;4.90;36.70;;;;;;10361833;28;20235;-78
2024/01/15 11:17:27;;;;;;;4.83;2.70;;;5.00;36.80;;;;;;10361873;28;20226;-78
2024/01/15 11:22:49;;;;;;;3.47;2.90;;;5.00;36.50;;;;;;10357854;28;20222;-75
2024/01/15 11:27:54;;;;;;;2.87;2.50;;;5.00;35.20;;;;;;10358412;28;20261;-75
2024/01/15 11:32:59;;;;;;;2.63;2.40;;;5.10;36.80;;;;;;10359812;28;20238;-75
2024/01/15 11:38:03;;;;;;;2.50;2.30;;;5.10;36.10;;;;;;10357969;28;20225;-74
2024/01/15 11:43:09;;;;;;;5.23;2.73;;;5.10;35.70;;;;;;10368189;28;20244;-74
2024/01/15 11:48:15;;;;;;;3.50;2.67;;;5.10;35.50;;;;;;10358928;28;20234;-75
2024/01/15 11:53:28;;;;;;;2.90;2.60;;;5.10;35.60;;;;;;10361679;28;20230;-74
2024/01/15 11:58:32;;;;;;;3.20;2.20;;;5.10;35.60;;;;;;10361647;28;20577;-74
2024/01/15 12:03:36;;;;;;;4.93;2.83;;;5.20;35.90;;;;;;10356422;28;20241;-75
2024/01/15 12:08:40;;;;;;;2.60;2.40;;;5.30;35.60;;;;;;10352898;28;20230;-76
2024/01/15 12:13:43;;;;;;;3.00;2.70;;;5.40;36.10;;;;;;10352635;28;20243;-76
2024/01/15 12:18:48;;;;;;;5.53;4.77;;;5.40;35.30;;;;;;10347459;28;20311;-76
2024/01/15 12:23:52;;;;;;;3.77;2.70;;;5.50;35.40;;;;;;10352820;28;20230;-77
2024/01/15 12:28:56;;;;;;;2.80;2.40;;;5.50;35.60;;;;;;10354587;28;20235;-75
2024/01/15 12:34:03;;;;;;;5.57;2.73;;;5.50;35.50;;;;;;10354031;28;20721;-75
2024/01/15 12:39:08;;;;;;;2.93;2.73;;;5.50;34.90;;;;;;10354766;28;20237;-75
2024/01/15 12:44:11;;;;;;;3.03;2.47;;;5.50;35.20;;;;;;10353901;28;20237;-75
2024/01/15 12:49:16;;;;;;;2.60;2.23;;;5.50;34.50;;;;;;10355456;28;20230;-75
2024/01/15 12:54:20;;;;;;;3.17;2.70;;;5.40;34.50;;;;;;10354462;28;20253;-75
2024/01/15 12:59:24;;;;;;;4.77;3.00;;;5.40;34.50;;;;;;10350157;28;20234;-74
2024/01/15 13:04:30;;;;;;;3.53;2.60;;;5.40;35.40;;;;;;10351678;28;20752;-77
2024/01/15 13:09:33;;;;;;;3.90;3.03;;;5.40;35.10;;;;;;10347255;28;20226;-77
2024/01/15 13:14:36;;;;;;;4.87;3.47;;;5.40;35.50;;;;;;10350564;28;20230;-75
2024/01/15 13:19:41;;;;;;;2.90;2.60;;;5.40;35.10;;;;;;10349792;28;20729;-75
2024/01/15 13:24:44;;;;;;;2.40;2.20;;;5.50;35.20;;;;;;10349901;28;20313;-76
2024/01/15 13:29:47;;;;;;;2.40;2.17;;;5.50;35.30;;;;;;10355229;28;20223;-77
2024/01/15 13:34:52;;;;;;;2.40;2.20;;;5.50;35.10;;;;;;10345850;28;20234;-76
2024/01/15 13:39:56;;;;;;;3.10;2.80;;;5.50;34.70;;;;;;10358750;28;20226;-77
2024/01/15 13:45:00;;;;;;;2.77;2.13;;;5.50;35.00;;;;;;10359501;28;20226;-76
2024/01/15 13:50:05;;;;;;;2.40;2.20;;;5.50;35.10;;;;;;10353981;28;20313;-76
2024/01/15 13:55:09;;;;;;;2.70;2.10;;;5.50;35.40;;;;;;10361754;28;20218;-78
2024/01/15 14:00:18;;;;;;;2.30;2.10;;;5.60;36.10;;;;;;10358434;28;20309;-76
2024/01/15 14:05:23;;;;;;;2.60;2.40;;;5.60;35.80;;;;;;10361046;28;20222;-76
2024/01/15 14:10:26;;;;;;;2.60;2.40;;;5.50;35.90;;;;;;10365150;28;20256;-78
2024/01/15 14:15:29;;;;;;;2.40;2.20;;;5.40;36.60;;;;;;10362228;28;20230;-78
2024/01/15 14:20:33;;;;;;;3.90;3.17;;;5.30;37.00;;;;;;10359629;28;20234;-78
2024/01/15 14:25:37;;;;;;;4.33;3.60;;;5.20;37.00;;;;;;10361560;28;20317;-78
2024/01/15 14:30:40;;;;;;;3.63;2.83;;;5.10;37.20;;;;;;10364353;28;20234;-78
2024/01/15 14:35:45;;;;;;;4.27;2.50;;;5.00;37.50;;;;;;10351800;28;20647;-73
2024/01/15 14:40:51;;;;;;;2.50;2.30;;;4.90;37.70;;;;;;10346292;28;20240;-74
2024/01/15 14:45:54;;;;;;;3.53;3.20;;;4.80;38.00;;;;;;10344831;28;20313;-74
2024/01/15 14:50:58;;;;;;;3.73;3.40;;;4.70;38.00;;;;;;10346031;28;20295;-74
2024/01/15 14:56:02;;;;;;;4.73;3.57;;;4.70;38.50;;;;;;10345753;28;20218;-74
2024/01/15 15:01:05;;;;;;;3.03;2.80;;;4.60;38.50;;;;;;10348260;28;20223;-76
2024/01/15 15:06:10;;;;;;;3.83;3.53;;;4.60;38.70;;;;;;10356426;28;20226;-75
2024/01/15 15:11:14;;;;;;;3.50;3.20;;;4.50;39.00;;;;;;10356195;28;20226;-74
2024/01/15 15:16:17;;;;;;;4.13;3.73;;;4.50;39.00;;;;;;10353554;28;20728;-75
2024/01/15 15:21:22;;;;;;;4.17;3.30;;;4.50;39.20;;;;;;10350086;28;20241;-74
2024/01/15 15:26:26;;;;;;;4.13;3.40;;;4.50;39.40;;;;;;10353348;28;20896;-76
2024/01/15 15:31:29;;;;;;;3.63;3.33;;;4.50;39.40;;;;;;10350636;28;20807;-76
2024/01/15 15:36:35;;;;;;;4.57;3.47;;;4.40;39.30;;;;;;10356682;28;20230;-75
2024/01/15 15:41:38;;;;;;;3.33;2.97;;;4.40;39.60;;;;;;10347996;28;20657;-75
2024/01/15 15:46:42;;;;;;;4.40;3.57;;;4.40;39.60;;;;;;10352436;28;20293;-74
2024/01/15 15:51:47;;;;;;;3.70;3.27;;;4.30;39.80;;;;;;10347930;28;20227;-73
2024/01/15 15:56:52;;;;;;;5.23;3.47;;;4.30;40.00;;;;;;10343051;28;20232;-73
2024/01/15 16:01:57;;;;;;;3.33;3.03;;;4.30;40.00;;;;;;10345499;28;20242;-74
2024/01/15 16:07:03;;;;;;;3.13;2.83;;;4.20;39.80;;;;;;10344987;28;20320;-74
2024/01/15 16:12:08;;;;;;;2.83;2.63;;;4.30;39.90;;;;;;10349375;28;20693;-75
2024/01/15 16:17:11;;;;;;;2.43;2.23;;;4.30;40.00;;;;;;10360799;28;20230;-75
2024/01/15 16:22:35;;;;;;;3.30;3.00;;;4.30;39.70;;;;;;10356761;28;20234;-75
2024/01/15 16:27:58;;;;;;;2.47;2.20;;;4.30;39.90;;;;;;10353137;28;20233;-75
2024/01/15 16:33:02;;;;;;;3.10;2.73;;;4.30;39.60;;;;;;10354012;28;20234;-74
2024/01/15 16:38:06;;;;;;;2.47;2.20;;;4.20;39.70;;;;;;10356566;28;20238;-76
2024/01/15 16:43:10;;;;;;;3.73;2.70;;;4.30;39.80;;;;;;10355571;28;21402;-76
2024/01/15 16:48:13;;;;;;;3.70;3.40;;;4.30;39.80;;;;;;10357346;28;20261;-77
2024/01/15 16:53:17;;;;;;;2.83;2.63;;;4.20;39.70;;;;;;10357254;28;20230;-78
2024/01/15 16:58:21;;;;;;;3.10;2.73;;;4.20;39.80;;;;;;10361949;28;20597;-77
2024/01/15 17:03:24;;;;;;;3.37;3.07;;;4.20;39.70;;;;;;10362455;28;20252;-76
2024/01/15 17:08:28;;;;;;;3.13;2.80;;;4.20;39.70;;;;;;10362126;28;20222;-77
2024/01/15 17:13:32;;;;;;;2.80;2.60;;;4.30;39.60;;;;;;10364266;28;20647;-77
2024/01/15 17:18:36;;;;;;;3.20;2.83;;;4.30;39.30;;;;;;10362484;28;20227;-76
2024/01/15 17:23:40;;;;;;;3.80;3.13;;;4.30;39.30;;;;;;10367995;28;20250;-77
2024/01/15 17:28:43;;;;;;;3.33;3.03;;;4.30;39.10;;;;;;10369361;28;20245;-77
2024/01/15 17:33:47;;;;;;;3.60;3.30;;;4.30;39.10;;;;;;10366208;28;20234;-77
2024/01/15 17:38:51;;;;;;;4.50;3.77;;;4.20;39.20;;;;;;10366142;28;20709;-77
2024/01/15 17:43:54;;;;;;;3.90;3.53;;;4.10;39.10;;;;;;10366889;28;20315;-77
2024/01/15 17:49:02;;;;;;;3.63;3.27;;;4.10;39.10;;;;;;10368289;28;20230;-77
2024/01/15 17:54:08;;;;;;;4.97;4.00;;;4.10;39.10;;;;;;10366616;28;20235;-77
2024/01/15 17:59:12;;;;;;;4.00;3.60;;;4.00;39.40;;;;;;10333228;28;20582;-75
2024/01/15 18:04:16;;;;;;;3.90;3.50;;;4.00;39.40;;;;;;10364494;28;20273;-80
2024/01/15 18:09:20;;;;;;;3.30;3.00;;;3.90;39.70;;;;;;10367565;28;20313;-79
2024/01/15 18:14:25;;;;;;;3.67;3.20;;;3.90;39.50;;;;;;10359840;28;20230;-76
2024/01/15 18:19:28;;;;;;;3.87;3.47;;;3.90;39.40;;;;;;10361706;28;20237;-75
2024/01/15 18:24:32;;;;;;;3.60;3.30;;;3.90;39.30;;;;;;10362006;28;20759;-77
2024/01/15 18:29:38;;;;;;;3.53;3.23;;;3.80;39.10;;;;;;10359596;28;20281;-75
2024/01/15 18:34:42;;;;;;;4.50;4.00;;;3.80;38.80;;;;;;10355507;28;20241;-77
2024/01/15 18:39:47;;;;;;;4.13;3.77;;;3.80;38.70;;;;;;10354647;28;20230;-74
2024/01/15 18:44:50;;;;;;;3.97;3.63;;;3.80;38.70;;;;;;10316390;28;20243;-73
2024/01/15 18:49:55;;;;;;;4.77;4.37;;;3.70;38.70;;;;;;10350767;28;20230;-74
2024/01/15 18:54:59;;;;;;;4.87;4.37;;;3.70;38.60;;;;;;10350382;28;20246;-74
2024/01/15 19:00:04;;;;;;;4.33;3.83;;;3.60;38.40;;;;;;10342704;28;20322;-72
2024/01/15 19:05:08;;;;;;;4.40;4.00;;;3.60;38.40;;;;;;10351162;28;20236;-75
2024/01/15 19:10:13;;;;;;;4.43;4.03;;;3.60;38.40;;;;;;10350326;28;20768;-75
2024/01/15 19:15:16;;;;;;;4.77;3.90;;;3.60;38.20;;;;;;10350675;28;20234;-74
2024/01/15 19:20:23;;;;;;;4.93;4.43;;;3.60;38.40;;;;;;10349550;28;20257;-73
2024/01/15 19:25:28;;;;;;;4.60;4.20;;;3.40;38.20;;;;;;10350876;28;20229;-75
2024/01/15 19:30:31;;;;;;;4.63;4.23;;;3.60;38.30;;;;;;10349944;28;20317;-76
2024/01/15 19:35:35;;;;;;;5.53;4.47;;;3.50;38.20;;;;;;10349608;28;20230;-75
2024/01/15 19:40:40;;;;;;;5.10;4.60;;;3.40;38.20;;;;;;10350469;28;20234;-74
2024/01/15 19:45:43;;;;;;;4.20;3.80;;;3.40;38.30;;;;;;10349359;28;20245;-73
2024/01/15 19:50:46;;;;;;;4.10;3.70;;;3.30;38.30;;;;;;10349748;28;20873;-73
2024/01/15 19:55:51;;;;;;;4.13;3.60;;;3.20;38.30;;;;;;10350898;28;20230;-73
2024/01/15 20:00:54;;;;;;;4.10;3.70;;;3.20;38.10;;;;;;10348259;28;20230;-73
2024/01/15 20:05:57;;;;;;;3.90;3.27;;;3.10;38.20;;;;;;10349940;28;20777;-72
2024/01/15 20:11:02;;;;;;;4.43;3.87;;;3.10;38.20;;;;;;10348503;28;20308;-72
2024/01/15 20:16:09;;;;;;;3.77;3.43;;;3.20;38.10;;;;;;10347915;28;20846;-72
2024/01/15 20:21:13;;;;;;;3.87;3.47;;;3.10;38.00;;;;;;10348208;28;20230;-71
2024/01/15 20:26:18;;;;;;;4.57;3.20;;;3.10;38.10;;;;;;10347946;28;20226;-73
2024/01/15 20:31:21;;;;;;;3.97;3.23;;;3.00;38.10;;;;;;10346949;28;20411;-73
2024/01/15 20:36:26;;;;;;;4.10;3.70;;;3.00;38.20;;;;;;10347947;28;20230;-72
2024/01/15 20:41:30;;;;;;;4.33;3.93;;;3.00;38.10;;;;;;10355606;28;20254;-72
2024/01/15 20:46:33;;;;;;;4.33;3.87;;;3.10;38.10;;;;;;10354828;28;20238;-71
2024/01/15 20:51:37;;;;;;;5.17;4.10;;;3.10;38.10;;;;;;10363605;28;20226;-71
2024/01/15 20:56:42;;;;;;;4.53;3.90;;;3.10;38.10;;;;;;10385190;28;20281;-71
2024/01/15 21:01:45;;;;;;;4.10;3.57;;;3.00;38.00;;;;;;10383618;28;20234;-71
2024/01/15 21:06:48;;;;;;;4.30;3.90;;;3.00;38.00;;;;;;10364012;28;20348;-71
2024/01/15 21:11:54;;;;;;;6.97;3.83;;;3.00;38.10;;;;;;10363959;28;20592;-71
2024/01/15 21:16:57;;;;;;;4.63;3.97;;;3.00;38.10;;;;;;10364034;28;20604;-71
2024/01/15 21:22:00;;;;;;;3.97;3.57;;;3.00;38.00;;;;;;10363308;28;20230;-71
2024/01/15 21:27:05;;;;;;;4.20;3.67;;;3.00;38.10;;;;;;10363339;28;20234;-71
2024/01/15 21:32:08;;;;;;;3.93;3.53;;;3.00;38.00;;;;;;10363264;28;20241;-71
2024/01/15 21:37:12;;;;;;;5.37;3.53;;;3.10;38.20;;;;;;10363311;28;20489;-71
2024/01/15 21:42:17;;;;;;;4.77;3.67;;;3.10;38.10;;;;;;10356157;28;20600;-71
2024/01/15 21:47:20;;;;;;;3.57;3.27;;;3.00;38.00;;;;;;10361232;28;20265;-71
2024/01/15 21:52:23;;;;;;;3.10;2.90;;;3.00;38.10;;;;;;10363018;28;20765;-71
2024/01/15 21:57:28;;;;;;;3.80;2.73;;;3.00;38.00;;;;;;10366013;28;20226;-71
2024/01/15 22:02:32;;;;;;;3.20;2.90;;;3.10;38.00;;;;;;10369728;28;20309;-71
2024/01/15 22:07:37;;;;;;;4.23;3.20;;;3.10;38.10;;;;;;10370113;28;20249;-71
2024/01/15 22:12:42;;;;;;;3.50;3.20;;;3.20;38.20;;;;;;10369441;28;20226;-71
2024/01/15 22:17:45;;;;;;;3.73;3.37;;;3.10;38.20;;;;;;10369594;28;20246;-71
2024/01/15 22:22:48;;;;;;;3.40;2.90;;;3.10;38.00;;;;;;10369245;28;20636;-71
2024/01/15 22:27:53;;;;;;;3.97;3.57;;;3.20;38.00;;;;;;10369020;28;21062;-71
2024/01/15 22:32:56;;;;;;;3.40;2.90;;;3.20;37.70;;;;;;10368857;28;20240;-71
2024/01/15 22:38:01;;;;;;;3.37;3.03;;;3.20;37.90;;;;;;10368744;28;20313;-71
2024/01/15 22:43:05;;;;;;;3.73;3.00;;;3.20;37.90;;;;;;10376220;28;20225;-70
2024/01/15 22:48:09;;;;;;;3.80;3.03;;;3.20;37.70;;;;;;10368481;28;20229;-71
2024/01/15 22:53:13;;;;;;;3.37;3.07;;;3.40;38.00;;;;;;10367882;28;20325;-71
2024/01/15 22:58:17;;;;;;;4.70;3.00;;;3.20;37.70;;;;;;10367086;28;20227;-71
2024/01/15 23:03:20;;;;;;;4.00;3.03;;;3.30;37.60;;;;;;10367745;28;20228;-71
2024/01/15 23:08:24;;;;;;;2.93;2.73;;;3.20;37.70;;;;;;10358061;28;20222;-69
2024/01/15 23:13:29;;;;;;;2.97;2.67;;;3.20;37.90;;;;;;10366935;28;20230;-71
2024/01/15 23:18:32;;;;;;;3.30;3.00;;;3.10;37.60;;;;;;10367265;28;20659;-70
2024/01/15 23:23:36;;;;;;;4.47;2.80;;;3.10;37.70;;;;;;10367010;28;20238;-71
2024/01/15 23:28:41;;;;;;;4.17;2.70;;;3.10;37.70;;;;;;10366753;28;20238;-71
2024/01/15 23:33:44;;;;;;;3.53;2.47;;;3.10;37.70;;;;;;10366335;28;20264;-71
2024/01/15 23:38:47;;;;;;;2.90;2.60;;;3.10;37.90;;;;;;10366535;28;20233;-71
2024/01/15 23:43:52;;;;;;;3.10;2.80;;;3.10;37.80;;;;;;10366288;28;20257;-71
2024/01/15 23:48:55;;;;;;;3.00;2.70;;;3.20;37.80;;;;;;10365848;28;20599;-71
2024/01/15 23:53:58;;;;;;;3.00;2.67;;;3.10;37.60;;;;;;10365841;28;20233;-71
2024/01/15 23:59:03;;;;;;;3.67;2.80;;;3.10;37.70;;;;;;10365415;28;20322;-71
